createdAt,value
2022-09-14T00:02:35.204Z,1.80
2022-09-14T00:08:37.537Z,1.48
2022-09-14T00:14:40.498Z,1.55
2022-09-14T00:20:42.341Z,1.63
2022-09-14T00:26:44.110Z,1.30
2022-09-14T00:32:45.847Z,1.70
2022-09-14T00:38:48.690Z,1.65
2022-09-14T00:44:50.398Z,1.75
2022-09-14T00:50:53.375Z,1.70
2022-09-14T00:56:55.961Z,1.40
2022-09-14T01:02:57.829Z,1.40
2022-09-14T01:09:02.690Z,1.35
2022-09-14T01:15:10.318Z,1.40
2022-09-14T01:21:21.672Z,1.45
2022-09-14T01:27:29.170Z,0.95
2022-09-14T01:33:38.108Z,1.35
2022-09-14T01:39:49.066Z,1.30
2022-09-14T01:46:00.973Z,1.17
2022-09-14T01:52:12.305Z,1.45
2022-09-14T01:58:32.635Z,1.50
2022-09-14T02:05:08.971Z,1.13
2022-09-14T02:11:11.045Z,1.60
2022-09-14T02:17:13.813Z,1.60
2022-09-14T02:23:16.137Z,1.77
2022-09-14T02:29:17.949Z,1.30
2022-09-14T02:35:39.925Z,1.33
2022-09-14T02:42:27.678Z,1.60
2022-09-14T02:48:40.763Z,1.60
2022-09-14T02:54:50.563Z,1.38
2022-09-14T03:00:52.584Z,1.20
2022-09-14T03:06:54.376Z,1.27
2022-09-14T03:12:56.206Z,1.50
2022-09-14T03:19:20.577Z,1.45
2022-09-14T03:25:25.549Z,1.45
2022-09-14T03:31:27.722Z,1.25
2022-09-14T03:37:29.575Z,1.33
2022-09-14T03:43:31.357Z,1.35
2022-09-14T03:49:33.106Z,1.50
2022-09-14T03:55:34.847Z,1.88
2022-09-14T04:01:38.196Z,1.90
2022-09-14T04:07:40.020Z,1.67
2022-09-14T04:13:44.383Z,1.95
2022-09-14T04:19:46.219Z,1.90
2022-09-14T04:25:47.958Z,1.60
2022-09-14T04:31:49.700Z,1.80
2022-09-14T04:37:51.407Z,1.95
2022-09-14T04:43:54.741Z,1.50
2022-09-14T04:49:56.458Z,2.00
2022-09-14T04:56:08.986Z,2.42
2022-09-14T05:02:10.741Z,2.13
2022-09-14T05:08:12.468Z,2.00
2022-09-14T05:14:14.933Z,1.90
2022-09-14T05:20:16.874Z,1.88
2022-09-14T05:26:18.648Z,1.75
2022-09-14T05:32:20.422Z,1.83
2022-09-14T05:38:22.133Z,2.13
2022-09-14T05:44:23.938Z,1.83
2022-09-14T05:50:25.691Z,1.58
2022-09-14T05:56:29.319Z,1.90
2022-09-14T06:02:31.149Z,1.98
2022-09-14T06:08:33.517Z,1.90
2022-09-14T06:14:35.327Z,2.00
2022-09-14T06:20:37.046Z,2.38
2022-09-14T06:26:40.110Z,1.95
2022-09-14T06:32:42.068Z,2.10
2022-09-14T06:38:44.435Z,1.75
2022-09-14T06:44:47.557Z,1.80
2022-09-14T06:50:49.277Z,1.80
2022-09-14T06:56:51.020Z,2.00
2022-09-14T07:02:55.721Z,2.28
2022-09-14T07:08:57.653Z,2.00
2022-09-14T07:14:59.489Z,2.10
2022-09-14T07:21:13.162Z,2.33
2022-09-14T07:27:14.950Z,2.75
2022-09-14T07:33:16.685Z,2.28
2022-09-14T07:39:18.580Z,1.63
2022-09-14T07:45:21.682Z,2.05
2022-09-14T07:51:25.117Z,2.10
2022-09-14T07:57:52.204Z,1.40
2022-09-14T08:03:50.001Z,1.90
2022-09-14T08:09:51.685Z,1.92
2022-09-14T08:15:53.398Z,2.20
2022-09-14T08:21:55.199Z,1.45
2022-09-14T08:27:56.875Z,1.50
2022-09-14T08:34:00.648Z,1.90
2022-09-14T08:40:03.182Z,1.77
2022-09-14T08:46:12.191Z,1.85
2022-09-14T08:52:38.165Z,1.70
2022-09-14T08:58:57.171Z,1.90
2022-09-14T09:05:16.304Z,1.55
2022-09-14T09:11:20.995Z,1.80
2022-09-14T09:17:33.408Z,1.92
2022-09-14T09:23:35.923Z,1.80
2022-09-14T09:29:37.719Z,2.50
2022-09-14T09:35:45.529Z,2.42
2022-09-14T09:41:58.590Z,2.72
2022-09-14T09:48:09.567Z,2.70
2022-09-14T09:54:14.156Z,2.13
2022-09-14T10:00:27.520Z,2.30
2022-09-14T10:06:29.768Z,2.70
2022-09-14T10:12:32.244Z,2.10
2022-09-14T10:18:35.531Z,2.00
2022-09-14T10:24:38.489Z,1.90
2022-09-14T10:30:49.342Z,2.13
2022-09-14T10:37:05.025Z,2.00
2022-09-14T10:43:20.232Z,2.58
2022-09-14T10:49:24.973Z,2.70
2022-09-14T10:55:34.063Z,2.15
2022-09-14T11:02:27.173Z,3.10
2022-09-14T11:08:33.375Z,2.53
2022-09-14T11:14:41.236Z,2.42
2022-09-14T11:20:55.886Z,2.20
2022-09-14T11:27:04.399Z,2.40
2022-09-14T11:33:34.037Z,2.33
2022-09-14T11:39:44.768Z,2.00
2022-09-14T11:46:07.374Z,2.50
2022-09-14T11:52:21.424Z,2.85
2022-09-14T11:58:25.685Z,2.53
2022-09-14T12:04:29.762Z,2.72
2022-09-14T12:10:31.657Z,2.92
2022-09-14T12:16:34.728Z,2.42
2022-09-14T12:22:38.132Z,3.17
2022-09-14T12:28:50.159Z,2.70
2022-09-14T12:35:35.576Z,3.45
2022-09-14T12:41:37.257Z,3.00
2022-09-14T12:47:39.485Z,3.35
2022-09-14T12:53:43.810Z,3.03
2022-09-14T12:59:57.321Z,2.85
2022-09-14T13:05:59.074Z,3.70
2022-09-14T13:12:10.835Z,3.78
2022-09-14T13:18:18.602Z,3.80
2022-09-14T13:24:27.394Z,3.65
2022-09-14T13:30:31.148Z,4.10
2022-09-14T13:36:37.065Z,4.22
2022-09-14T13:42:46.703Z,4.32
2022-09-14T13:48:49.140Z,4.82
2022-09-14T13:54:54.120Z,4.13
2022-09-14T14:01:00.277Z,4.13
2022-09-14T14:07:24.364Z,3.92
2022-09-14T14:13:32.030Z,3.90
2022-09-14T14:19:33.757Z,4.53
2022-09-14T14:25:45.827Z,4.50
2022-09-14T14:31:49.198Z,4.70
2022-09-14T14:37:51.527Z,5.22
2022-09-14T14:43:53.354Z,4.40
2022-09-14T14:49:55.098Z,4.45
2022-09-14T14:55:57.295Z,3.45
2022-09-14T15:01:59.180Z,3.90
2022-09-14T15:08:01.029Z,3.78
2022-09-14T15:14:02.960Z,3.72
2022-09-14T15:20:05.456Z,3.17
2022-09-14T15:26:07.494Z,3.20
2022-09-14T15:32:09.340Z,3.17
2022-09-14T15:38:11.526Z,2.92
2022-09-14T15:44:13.467Z,4.60
2022-09-14T15:50:15.874Z,3.88
2022-09-14T15:56:18.024Z,5.50
2022-09-14T16:02:20.358Z,4.60
2022-09-14T16:08:22.128Z,4.20
2022-09-14T16:14:23.872Z,7.13
2022-09-14T16:20:25.682Z,4.15
2022-09-14T16:26:32.819Z,4.90
2022-09-14T16:32:35.017Z,3.80
2022-09-14T16:38:37.559Z,4.43
2022-09-14T16:44:39.287Z,4.22
2022-09-14T16:50:41.016Z,3.70
2022-09-14T16:56:43.334Z,3.20
2022-09-14T17:02:45.385Z,2.70
2022-09-14T17:08:48.409Z,2.60
2022-09-14T17:14:51.463Z,3.13
2022-09-14T17:20:59.093Z,2.83
2022-09-14T17:27:04.861Z,2.72
2022-09-14T17:33:06.642Z,2.55
2022-09-14T17:39:12.467Z,2.72
2022-09-14T17:45:15.323Z,2.85
2022-09-14T17:51:27.959Z,2.38
2022-09-14T17:57:29.717Z,2.63
2022-09-14T18:03:31.923Z,2.58
2022-09-14T18:09:35.335Z,2.20
2022-09-14T18:15:40.603Z,2.20
2022-09-14T18:21:43.215Z,2.75
2022-09-14T18:27:45.009Z,2.55
2022-09-14T18:33:55.049Z,2.05
2022-09-14T18:39:56.973Z,2.67
2022-09-14T18:45:59.693Z,2.50
2022-09-14T18:52:01.824Z,3.00
2022-09-14T18:58:03.638Z,3.38
2022-09-14T19:04:09.382Z,3.38
2022-09-14T19:10:11.863Z,4.55
2022-09-14T19:16:17.048Z,4.65
2022-09-14T19:22:21.892Z,7.72
2022-09-14T19:28:23.646Z,8.57
2022-09-14T19:34:27.352Z,7.00
2022-09-14T19:40:29.178Z,9.30
2022-09-14T19:46:33.804Z,7.80
2022-09-14T19:52:38.571Z,6.55
2022-09-14T19:58:50.774Z,7.97
2022-09-14T20:04:52.477Z,6.45
2022-09-14T20:10:54.515Z,7.28
2022-09-14T20:17:02.186Z,11.43
2022-09-14T20:23:04.554Z,11.10
2022-09-14T20:29:06.337Z,10.68
2022-09-14T20:35:09.684Z,12.27
2022-09-14T20:41:12.778Z,9.98
2022-09-14T20:47:14.655Z,8.90
2022-09-14T20:53:16.390Z,9.35
2022-09-14T20:59:19.526Z,10.32
2022-09-14T21:05:21.289Z,10.48
2022-09-14T21:11:25.265Z,10.07
2022-09-14T21:17:27.021Z,11.02
2022-09-14T21:23:28.764Z,11.20
2022-09-14T21:29:31.198Z,11.00
2022-09-14T21:35:33.804Z,10.85
2022-09-14T21:41:36.466Z,10.13
2022-09-14T21:47:38.295Z,10.40
2022-09-14T21:53:40.088Z,9.82
2022-09-14T21:59:41.880Z,10.52
2022-09-14T22:05:43.608Z,10.48
2022-09-14T22:11:45.830Z,13.00
2022-09-14T22:17:48.718Z,10.85
2022-09-14T22:23:56.152Z,11.05
2022-09-14T22:29:58.871Z,10.07
2022-09-14T22:36:02.305Z,11.27
2022-09-14T22:42:05.188Z,10.30
2022-09-14T22:48:06.895Z,10.00
2022-09-14T22:54:08.924Z,10.38
2022-09-14T23:00:12.043Z,9.70
2022-09-14T23:06:14.143Z,8.50
2022-09-14T23:12:16.116Z,9.65
2022-09-14T23:18:17.816Z,8.85
2022-09-14T23:24:19.602Z,8.82
2022-09-14T23:30:21.556Z,7.88
2022-09-14T23:36:24.591Z,8.63
2022-09-14T23:42:26.356Z,8.15
2022-09-14T23:48:28.520Z,10.77
2022-09-14T23:54:30.305Z,9.60
